createdAt,value
2022-10-11T00:01:17.882Z,17.10
2022-10-11T00:03:44.859Z,17.10
2022-10-11T00:06:11.791Z,17.10
2022-10-11T00:08:38.692Z,17.10
2022-10-11T00:11:10.315Z,17.00
2022-10-11T00:13:39.583Z,17.10
2022-10-11T00:16:11.755Z,17.10
2022-10-11T00:18:39.305Z,17.10
2022-10-11T00:21:10.289Z,17.10
2022-10-11T00:23:40.070Z,17.10
2022-10-11T00:26:09.798Z,17.00
2022-10-11T00:28:37.960Z,17.00
2022-10-11T00:31:11.295Z,17.00
2022-10-11T00:33:40.794Z,17.00
2022-10-11T00:36:09.692Z,17.00
2022-10-11T00:38:41.621Z,17.00
2022-10-11T00:41:11.336Z,17.00
2022-10-11T00:43:41.389Z,16.90
2022-10-11T00:46:27.959Z,16.90
2022-10-11T00:49:05.179Z,16.90
2022-10-11T00:51:42.867Z,16.90
2022-10-11T00:54:14.226Z,16.80
2022-10-11T00:56:44.359Z,16.80
2022-10-11T00:59:17.840Z,16.80
2022-10-11T01:01:45.016Z,16.80
2022-10-11T01:04:12.022Z,16.80
2022-10-11T01:06:39.935Z,16.80
2022-10-11T01:09:07.405Z,16.80
2022-10-11T01:11:38.343Z,16.70
2022-10-11T01:14:52.418Z,16.70
2022-10-11T01:17:41.408Z,16.60
2022-10-11T01:20:54.812Z,16.60
2022-10-11T01:23:50.125Z,16.60
2022-10-11T01:27:18.717Z,16.60
2022-10-11T01:29:54.877Z,16.60
2022-10-11T01:32:34.350Z,16.60
2022-10-11T01:35:19.275Z,16.60
2022-10-11T01:38:03.601Z,16.60
2022-10-11T01:40:47.154Z,16.60
2022-10-11T01:43:17.235Z,16.60
2022-10-11T01:45:45.956Z,16.70
2022-10-11T01:48:13.917Z,16.70
2022-10-11T01:50:48.183Z,16.70
2022-10-11T01:53:55.026Z,16.60
2022-10-11T01:57:14.700Z,16.60
2022-10-11T01:59:44.633Z,16.60
2022-10-11T02:02:48.029Z,16.60
2022-10-11T02:05:20.014Z,16.60
2022-10-11T02:08:09.569Z,16.60
2022-10-11T02:10:59.331Z,16.60
2022-10-11T02:13:39.392Z,16.60
2022-10-11T02:16:12.791Z,16.60
2022-10-11T02:18:48.014Z,16.60
2022-10-11T02:21:19.934Z,16.60
2022-10-11T02:24:06.168Z,16.60
2022-10-11T02:26:34.767Z,16.50
2022-10-11T02:29:09.777Z,16.50
2022-10-11T02:31:39.697Z,16.50
2022-10-11T02:34:22.330Z,16.50
2022-10-11T02:37:12.293Z,16.50
2022-10-11T02:39:57.381Z,16.40
2022-10-11T02:42:32.776Z,16.40
2022-10-11T02:45:10.205Z,16.40
2022-10-11T02:47:40.265Z,16.30
2022-10-11T02:50:12.134Z,16.30
2022-10-11T02:52:39.030Z,16.30
2022-10-11T02:55:07.017Z,16.30
2022-10-11T02:57:33.997Z,16.30
2022-10-11T03:00:00.997Z,16.20
2022-10-11T03:02:27.882Z,16.20
2022-10-11T03:04:54.776Z,16.20
2022-10-11T03:07:23.906Z,16.20
2022-10-11T03:09:50.860Z,16.20
2022-10-11T03:12:17.751Z,16.20
2022-10-11T03:14:48.674Z,16.20
2022-10-11T03:17:35.099Z,16.20
2022-10-11T03:20:02.676Z,16.20
2022-10-11T03:22:29.578Z,16.20
2022-10-11T03:24:59.766Z,16.20
2022-10-11T03:27:30.506Z,16.20
2022-10-11T03:29:57.785Z,16.20
2022-10-11T03:32:24.807Z,16.20
2022-10-11T03:34:51.659Z,16.30
2022-10-11T03:37:23.586Z,16.30
2022-10-11T03:39:52.933Z,16.30
2022-10-11T03:42:22.135Z,16.30
2022-10-11T03:44:52.051Z,16.30
2022-10-11T03:47:19.309Z,16.30
2022-10-11T03:49:47.536Z,16.30
2022-10-11T03:52:16.966Z,16.30
2022-10-11T03:54:46.811Z,16.30
2022-10-11T03:57:16.169Z,16.30
2022-10-11T03:59:45.534Z,16.30
2022-10-11T04:02:12.481Z,16.30
2022-10-11T04:04:42.416Z,16.30
2022-10-11T04:07:09.722Z,16.30
2022-10-11T04:09:37.885Z,16.30
2022-10-11T04:12:10.346Z,16.30
2022-10-11T04:14:40.524Z,16.20
2022-10-11T04:17:12.421Z,16.30
2022-10-11T04:19:39.300Z,16.30
2022-10-11T04:22:07.766Z,16.20
2022-10-11T04:24:34.804Z,16.20
2022-10-11T04:27:04.224Z,16.20
2022-10-11T04:29:32.712Z,16.20
2022-10-11T04:32:00.083Z,16.20
2022-10-11T04:34:27.030Z,16.20
2022-10-11T04:36:56.120Z,16.20
2022-10-11T04:39:25.558Z,16.20
2022-10-11T04:41:55.878Z,16.20
2022-10-11T04:44:22.851Z,16.20
2022-10-11T04:47:07.718Z,16.20
2022-10-11T04:49:48.770Z,16.10
2022-10-11T04:52:16.040Z,16.10
2022-10-11T04:54:46.635Z,16.10
2022-10-11T04:57:13.674Z,16.10
2022-10-11T04:59:40.963Z,16.10
2022-10-11T05:02:08.110Z,16.10
2022-10-11T05:04:37.817Z,16.10
2022-10-11T05:07:06.535Z,16.10
2022-10-11T05:09:33.695Z,16.10
2022-10-11T05:12:03.648Z,16.10
2022-10-11T05:14:33.167Z,16.10
2022-10-11T05:17:00.285Z,16.10
2022-10-11T05:19:27.433Z,16.10
2022-10-11T05:21:57.852Z,16.10
2022-10-11T05:24:29.514Z,16.10
2022-10-11T05:27:03.184Z,16.10
2022-10-11T05:29:35.683Z,16.10
2022-10-11T05:32:48.920Z,16.10
2022-10-11T05:35:16.072Z,16.10
2022-10-11T05:38:01.546Z,16.10
2022-10-11T05:46:39.620Z,16.10
2022-10-11T05:49:09.175Z,16.10
2022-10-11T05:51:37.526Z,16.20
2022-10-11T05:54:09.346Z,16.20
2022-10-11T05:56:36.281Z,16.20
2022-10-11T05:59:05.030Z,16.20
2022-10-11T06:01:32.252Z,16.20
2022-10-11T06:04:01.937Z,16.20
2022-10-11T06:06:28.928Z,16.20
2022-10-11T06:08:58.400Z,16.20
2022-10-11T06:11:27.653Z,16.20
2022-10-11T06:13:58.754Z,16.20
2022-10-11T06:16:25.944Z,16.30
2022-10-11T06:18:54.703Z,16.20
2022-10-11T06:21:22.929Z,16.30
2022-10-11T06:23:51.338Z,16.30
2022-10-11T06:26:19.491Z,16.30
2022-10-11T06:28:46.814Z,16.30
2022-10-11T06:31:14.441Z,16.30
2022-10-11T06:33:41.458Z,16.30
2022-10-11T06:36:16.943Z,16.30
2022-10-11T06:38:46.609Z,16.30
2022-10-11T06:41:26.933Z,16.30
2022-10-11T06:43:54.448Z,16.20
2022-10-11T06:46:27.422Z,16.30
2022-10-11T06:48:59.021Z,16.30
2022-10-11T06:51:30.106Z,16.30
2022-10-11T06:53:59.694Z,16.10
2022-10-11T06:56:30.406Z,16.30
2022-10-11T06:59:03.679Z,16.30
2022-10-11T07:01:30.858Z,16.30
2022-10-11T07:04:01.391Z,16.30
2022-10-11T07:06:30.571Z,16.40
2022-10-11T07:09:00.795Z,16.40
2022-10-11T07:11:28.765Z,16.40
2022-10-11T07:14:07.826Z,16.40
2022-10-11T07:16:38.296Z,16.40
2022-10-11T07:19:07.799Z,16.50
2022-10-11T07:21:37.408Z,16.50
2022-10-11T07:24:04.809Z,16.60
2022-10-11T07:26:38.785Z,16.60
2022-10-11T07:29:11.843Z,16.60
2022-10-11T07:31:42.445Z,16.70
2022-10-11T07:34:10.551Z,16.70
2022-10-11T07:36:40.250Z,16.70
2022-10-11T07:39:08.886Z,16.80
2022-10-11T07:41:44.653Z,16.80
2022-10-11T07:44:13.270Z,16.90
2022-10-11T07:46:40.323Z,16.90
2022-10-11T07:49:07.325Z,16.90
2022-10-11T07:51:34.593Z,17.00
2022-10-11T07:54:07.004Z,17.00
2022-10-11T07:56:37.593Z,17.00
2022-10-11T07:59:05.207Z,17.10
2022-10-11T08:01:33.651Z,17.10
2022-10-11T08:04:00.930Z,17.20
2022-10-11T08:06:32.633Z,17.20
2022-10-11T08:09:01.527Z,17.20
2022-10-11T08:11:38.443Z,17.30
2022-10-11T08:14:09.191Z,17.30
2022-10-11T08:16:40.881Z,17.30
2022-10-11T08:19:07.970Z,17.40
2022-10-11T08:21:35.060Z,17.40
2022-10-11T08:24:05.739Z,17.40
2022-10-11T08:26:34.118Z,17.50
2022-10-11T08:29:03.585Z,17.50
2022-10-11T08:31:32.879Z,17.50
2022-10-11T08:33:59.902Z,17.50
2022-10-11T08:36:27.011Z,17.50
2022-10-11T08:38:53.972Z,17.50
2022-10-11T08:41:43.275Z,17.50
2022-10-11T08:45:09.580Z,17.50
2022-10-11T08:47:43.216Z,17.50
2022-10-11T08:50:20.895Z,17.60
2022-10-11T08:53:05.108Z,17.50
2022-10-11T08:55:45.201Z,17.60
2022-10-11T08:58:17.668Z,17.60
2022-10-11T09:00:55.410Z,17.60
2022-10-11T09:03:40.426Z,17.60
2022-10-11T09:06:23.821Z,17.70
2022-10-11T09:09:01.722Z,17.70
2022-10-11T09:12:16.850Z,17.70
2022-10-11T09:15:20.866Z,17.70
2022-10-11T09:17:59.926Z,17.80
2022-10-11T09:20:40.449Z,17.90
2022-10-11T09:23:34.658Z,17.90
2022-10-11T09:26:23.082Z,18.00
2022-10-11T09:29:01.320Z,18.10
2022-10-11T09:31:29.892Z,18.20
2022-10-11T09:34:06.265Z,18.30
2022-10-11T09:37:18.327Z,18.30
2022-10-11T09:40:01.439Z,18.30
2022-10-11T09:42:28.532Z,18.50
2022-10-11T09:44:57.463Z,18.60
2022-10-11T09:47:33.248Z,18.70
2022-10-11T09:50:12.656Z,18.70
2022-10-11T09:53:02.196Z,18.80
2022-10-11T09:55:50.362Z,18.90
2022-10-11T09:58:31.910Z,19.00
2022-10-11T10:01:07.871Z,19.00
2022-10-11T10:03:42.057Z,18.90
2022-10-11T10:06:28.860Z,19.10
2022-10-11T10:09:26.735Z,19.20
2022-10-11T10:11:55.521Z,19.30
2022-10-11T10:14:30.677Z,19.40
2022-10-11T10:17:06.497Z,19.50
2022-10-11T10:19:48.458Z,19.60
2022-10-11T10:22:22.738Z,19.70
2022-10-11T10:24:53.818Z,19.80
2022-10-11T10:27:28.302Z,19.90
2022-10-11T10:30:13.203Z,19.90
2022-10-11T10:33:04.831Z,20.00
2022-10-11T10:35:33.329Z,20.10
2022-10-11T10:38:49.877Z,20.00
2022-10-11T10:41:19.752Z,20.20
2022-10-11T10:43:55.401Z,20.40
2022-10-11T10:46:47.158Z,20.50
2022-10-11T10:49:48.861Z,20.70
2022-10-11T10:53:03.260Z,20.80
2022-10-11T10:55:45.154Z,20.90
2022-10-11T10:58:21.524Z,21.00
2022-10-11T11:01:06.238Z,21.10
2022-10-11T11:03:42.567Z,21.20
2022-10-11T11:06:26.493Z,21.20
2022-10-11T11:09:14.732Z,21.40
2022-10-11T11:12:34.584Z,21.40
2022-10-11T11:15:35.553Z,21.50
2022-10-11T11:18:07.669Z,21.60
2022-10-11T11:20:56.201Z,21.70
2022-10-11T11:23:33.006Z,21.70
2022-10-11T11:26:37.122Z,21.90
2022-10-11T11:29:29.065Z,21.90
2022-10-11T11:32:11.006Z,21.90
2022-10-11T11:34:47.988Z,21.80
2022-10-11T11:37:25.681Z,21.90
2022-10-11T11:39:58.229Z,21.90
2022-10-11T11:42:42.370Z,21.90
2022-10-11T11:45:24.560Z,21.80
2022-10-11T11:48:10.518Z,21.70
2022-10-11T11:50:46.033Z,21.70
2022-10-11T11:53:25.327Z,21.60
2022-10-11T11:56:07.926Z,21.50
2022-10-11T11:58:46.649Z,21.50
2022-10-11T12:01:47.384Z,21.50
2022-10-11T12:04:35.352Z,21.40
2022-10-11T12:07:16.786Z,21.30
2022-10-11T12:09:52.136Z,21.30
2022-10-11T12:12:34.183Z,21.30
2022-10-11T12:15:10.174Z,21.30
2022-10-11T12:17:59.190Z,21.20
2022-10-11T12:20:41.814Z,21.10
2022-10-11T12:23:52.119Z,21.10
2022-10-11T12:26:36.265Z,21.00
2022-10-11T12:29:25.916Z,21.00
2022-10-11T12:32:01.493Z,21.00
2022-10-11T12:37:25.096Z,20.90
2022-10-11T12:39:59.765Z,20.90
2022-10-11T12:43:23.926Z,20.90
2022-10-11T12:45:53.437Z,20.80
2022-10-11T12:48:41.730Z,20.80
2022-10-11T12:51:17.573Z,20.80
2022-10-11T12:54:29.112Z,20.80
2022-10-11T12:57:11.892Z,20.70
2022-10-11T12:59:44.983Z,20.70
2022-10-11T13:02:42.699Z,20.70
2022-10-11T13:05:31.592Z,20.70
2022-10-11T13:08:05.627Z,20.70
2022-10-11T13:10:43.920Z,20.70
2022-10-11T13:13:53.607Z,20.70
2022-10-11T13:16:28.648Z,20.70
2022-10-11T13:19:03.897Z,20.70
2022-10-11T13:21:36.686Z,20.70
2022-10-11T13:24:17.521Z,20.70
2022-10-11T13:26:51.699Z,20.80
2022-10-11T13:29:19.823Z,20.70
2022-10-11T13:31:48.400Z,20.80
2022-10-11T13:34:18.621Z,20.80
2022-10-11T13:36:47.994Z,20.80
2022-10-11T13:39:31.772Z,20.80
2022-10-11T13:42:01.441Z,20.70
2022-10-11T13:44:28.510Z,20.70
2022-10-11T13:46:55.463Z,20.70
2022-10-11T13:49:47.637Z,20.70
2022-10-11T13:52:24.887Z,20.60
2022-10-11T13:55:23.630Z,20.60
2022-10-11T13:57:55.919Z,20.60
2022-10-11T14:00:35.514Z,20.60
2022-10-11T14:03:16.423Z,20.60
2022-10-11T14:05:56.107Z,20.60
2022-10-11T14:08:38.846Z,20.60
2022-10-11T14:11:09.747Z,20.60
2022-10-11T14:13:44.586Z,20.60
2022-10-11T14:16:13.777Z,20.60
2022-10-11T14:18:48.787Z,20.60
2022-10-11T14:21:45.911Z,20.60
2022-10-11T14:24:17.815Z,20.60
2022-10-11T14:26:48.824Z,20.60
2022-10-11T14:29:33.971Z,20.60
2022-10-11T14:32:30.705Z,20.50
2022-10-11T14:34:58.267Z,20.50
2022-10-11T14:37:25.573Z,20.50
2022-10-11T14:39:55.200Z,20.50
2022-10-11T14:42:25.033Z,20.50
2022-10-11T14:44:52.212Z,20.50
2022-10-11T14:47:19.139Z,20.50
2022-10-11T14:49:45.982Z,20.50
2022-10-11T14:52:14.358Z,20.50
2022-10-11T14:54:41.542Z,20.50
2022-10-11T14:57:11.929Z,20.50
2022-10-11T14:59:39.130Z,20.50
2022-10-11T15:02:08.844Z,20.50
2022-10-11T15:04:38.280Z,20.50
2022-10-11T15:07:05.414Z,20.50
2022-10-11T15:09:32.546Z,20.50
2022-10-11T15:12:04.210Z,20.40
2022-10-11T15:14:34.102Z,20.50
2022-10-11T15:17:03.126Z,20.40
2022-10-11T15:19:30.026Z,20.40
2022-10-11T15:21:56.948Z,20.40
2022-10-11T15:24:23.920Z,20.40
2022-10-11T15:26:50.831Z,20.40
2022-10-11T15:29:24.209Z,20.40
2022-10-11T15:31:53.186Z,20.40
2022-10-11T15:34:20.106Z,20.30
2022-10-11T15:36:47.073Z,20.30
2022-10-11T15:39:33.650Z,20.30
2022-10-11T15:42:00.588Z,20.20
2022-10-11T15:44:29.894Z,20.20
2022-10-11T15:46:56.745Z,20.20
2022-10-11T15:49:23.610Z,20.20
2022-10-11T15:51:50.520Z,20.20
2022-10-11T15:54:17.372Z,20.10
2022-10-11T15:56:44.291Z,20.10
2022-10-11T15:59:11.757Z,20.10
2022-10-11T16:01:41.725Z,20.00
2022-10-11T16:04:09.462Z,20.00
2022-10-11T16:06:38.651Z,20.00
2022-10-11T16:09:05.742Z,20.00
2022-10-11T16:11:35.106Z,19.90
2022-10-11T16:14:04.518Z,19.90
2022-10-11T16:16:31.371Z,19.90
2022-10-11T16:18:58.180Z,19.90
2022-10-11T16:21:27.467Z,19.90
2022-10-11T16:23:56.401Z,19.80
2022-10-11T16:26:25.338Z,19.80
2022-10-11T16:28:56.580Z,19.80
2022-10-11T16:31:23.830Z,19.80
2022-10-11T16:33:52.835Z,19.70
2022-10-11T16:36:31.946Z,19.70
2022-10-11T16:39:16.898Z,19.70
2022-10-11T16:41:44.416Z,19.70
2022-10-11T16:44:18.245Z,19.70
2022-10-11T16:46:49.077Z,19.60
2022-10-11T16:49:22.511Z,19.60
2022-10-11T16:51:51.930Z,19.60
2022-10-11T16:54:20.816Z,19.60
2022-10-11T16:56:49.838Z,19.60
2022-10-11T16:59:17.456Z,19.60
2022-10-11T17:01:47.155Z,19.60
2022-10-11T17:04:14.179Z,19.50
2022-10-11T17:06:43.809Z,19.50
2022-10-11T17:09:10.949Z,19.50
2022-10-11T17:11:40.645Z,19.50
2022-10-11T17:14:07.691Z,19.50
2022-10-11T17:16:37.768Z,19.40
2022-10-11T17:19:05.123Z,19.40
2022-10-11T17:21:32.054Z,19.30
2022-10-11T17:23:59.089Z,19.30
2022-10-11T17:26:29.526Z,19.30
2022-10-11T17:29:00.868Z,19.30
2022-10-11T17:31:29.646Z,19.20
2022-10-11T17:33:59.784Z,19.10
2022-10-11T17:36:34.721Z,19.10
2022-10-11T17:39:08.057Z,19.10
2022-10-11T17:41:38.425Z,19.10
2022-10-11T17:44:10.551Z,19.00
2022-10-11T17:46:41.567Z,19.00
2022-10-11T17:49:09.012Z,19.00
2022-10-11T17:51:58.216Z,19.00
2022-10-11T17:57:27.426Z,18.90
2022-10-11T18:00:11.473Z,18.90
2022-10-11T18:02:44.599Z,18.90
2022-10-11T18:05:17.824Z,18.90
2022-10-11T18:08:06.167Z,18.80
2022-10-11T18:10:47.697Z,18.80
2022-10-11T18:16:24.690Z,18.70
2022-10-11T18:19:00.110Z,18.60
2022-10-11T18:21:34.272Z,18.60
2022-10-11T18:31:48.886Z,18.50
2022-10-11T18:34:28.121Z,18.50
2022-10-11T18:37:20.340Z,18.40
2022-10-11T18:39:48.855Z,18.40
2022-10-11T18:42:25.944Z,18.40
2022-10-11T18:45:00.903Z,18.30
2022-10-11T18:47:31.917Z,18.30
2022-10-11T18:50:06.377Z,18.30
2022-10-11T18:52:44.358Z,18.30
2022-10-11T18:55:26.788Z,18.30
2022-10-11T18:58:04.292Z,18.30
2022-10-11T19:00:40.514Z,18.30
2022-10-11T19:03:11.549Z,18.30
2022-10-11T19:05:50.733Z,18.30
2022-10-11T19:08:27.813Z,18.30
2022-10-11T19:13:48.840Z,18.30
2022-10-11T19:16:49.460Z,18.30
2022-10-11T19:19:32.942Z,18.30
2022-10-11T19:22:10.666Z,18.30
2022-10-11T19:27:48.077Z,18.30
2022-10-11T19:30:17.344Z,18.30
2022-10-11T19:36:20.156Z,18.30
2022-10-11T19:38:49.692Z,18.30
2022-10-11T19:41:20.576Z,18.30
2022-10-11T19:43:58.197Z,18.30
2022-10-11T19:49:26.016Z,18.30
2022-10-11T19:54:55.782Z,18.30
2022-10-11T19:57:49.765Z,18.30
2022-10-11T20:00:17.137Z,18.20
2022-10-11T20:02:49.366Z,18.20
2022-10-11T20:05:16.383Z,18.20
2022-10-11T20:07:46.270Z,18.20
2022-10-11T20:10:13.112Z,18.20
2022-10-11T20:12:45.730Z,18.10
2022-10-11T20:15:12.874Z,18.10
2022-10-11T20:17:48.894Z,18.10
2022-10-11T20:20:17.717Z,18.10
2022-10-11T20:22:49.389Z,18.00
2022-10-11T20:25:16.395Z,18.00
2022-10-11T20:27:47.877Z,18.00
2022-10-11T20:30:14.795Z,18.00
2022-10-11T20:32:44.019Z,17.80
2022-10-11T20:35:10.907Z,18.00
2022-10-11T20:37:42.334Z,18.00
2022-10-11T20:40:10.024Z,18.00
2022-10-11T20:42:39.962Z,17.70
2022-10-11T20:45:07.679Z,17.90
2022-10-11T20:47:34.946Z,17.90
2022-10-11T20:50:02.098Z,17.90
2022-10-11T20:52:31.418Z,17.90
2022-10-11T20:55:01.425Z,17.90
2022-10-11T20:57:28.282Z,17.90
2022-10-11T20:59:56.355Z,17.90
2022-10-11T21:02:23.282Z,17.90
2022-10-11T21:04:55.094Z,17.90
2022-10-11T21:07:24.049Z,17.90
2022-10-11T21:09:51.205Z,17.90
2022-10-11T21:12:20.176Z,17.90
2022-10-11T21:14:49.602Z,17.90
2022-10-11T21:17:19.189Z,17.90
2022-10-11T21:19:50.752Z,17.90
2022-10-11T21:22:17.636Z,17.90
2022-10-11T21:24:44.502Z,17.70
2022-10-11T21:27:13.867Z,17.90
2022-10-11T21:29:40.676Z,17.90
2022-10-11T21:32:14.134Z,17.90
2022-10-11T21:34:41.298Z,17.90
2022-10-11T21:37:10.546Z,17.90
2022-10-11T21:39:37.406Z,17.90
2022-10-11T21:42:04.278Z,17.80
2022-10-11T21:44:32.792Z,17.80
2022-10-11T21:47:07.202Z,17.80
2022-10-11T21:49:34.575Z,17.80
2022-10-11T21:52:01.570Z,17.80
2022-10-11T21:54:28.455Z,17.80
2022-10-11T21:57:00.032Z,17.70
2022-10-11T21:59:26.860Z,17.70
2022-10-11T22:02:01.510Z,17.50
2022-10-11T22:04:30.943Z,17.60
2022-10-11T22:07:00.523Z,17.60
2022-10-11T22:09:29.657Z,17.60
2022-10-11T22:11:59.458Z,17.60
2022-10-11T22:14:26.770Z,17.60
2022-10-11T22:16:53.669Z,17.50
2022-10-11T22:19:20.620Z,17.50
2022-10-11T22:21:47.488Z,17.50
2022-10-11T22:24:18.846Z,17.40
2022-10-11T22:26:48.277Z,17.40
2022-10-11T22:29:17.424Z,17.30
2022-10-11T22:31:44.284Z,17.40
2022-10-11T22:34:11.256Z,17.40
2022-10-11T22:36:41.225Z,17.30
2022-10-11T22:39:09.769Z,17.30
2022-10-11T22:41:37.228Z,17.30
2022-10-11T22:44:07.189Z,17.30
2022-10-11T22:46:34.151Z,17.30
2022-10-11T22:49:00.996Z,17.20
2022-10-11T22:51:27.791Z,17.20
2022-10-11T22:53:54.696Z,17.20
2022-10-11T22:56:24.005Z,17.20
2022-10-11T22:58:50.861Z,17.20
2022-10-11T23:01:17.781Z,17.20
2022-10-11T23:03:53.925Z,17.20
2022-10-11T23:06:20.887Z,17.30
2022-10-11T23:08:47.803Z,17.20
2022-10-11T23:11:18.102Z,17.30
2022-10-11T23:13:44.945Z,17.30
2022-10-11T23:16:15.842Z,17.20
2022-10-11T23:18:42.993Z,17.30
2022-10-11T23:21:10.123Z,17.30
2022-10-11T23:23:37.097Z,17.30
2022-10-11T23:26:10.382Z,17.30
2022-10-11T23:28:37.877Z,17.30
2022-10-11T23:31:16.328Z,17.30
2022-10-11T23:33:45.048Z,17.30
2022-10-11T23:36:16.053Z,17.30
2022-10-11T23:38:43.435Z,17.40
2022-10-11T23:41:10.521Z,17.40
2022-10-11T23:43:37.941Z,17.40
2022-10-11T23:46:07.358Z,17.40
2022-10-11T23:48:34.214Z,17.40
2022-10-11T23:51:01.061Z,17.40
2022-10-11T23:53:28.018Z,17.50
2022-10-11T23:55:54.880Z,17.50
2022-10-11T23:58:24.414Z,17.50
